Time;durP1;ratioP1;P1;durP2;ratioP2;P2;SDS_P1;SDS_P2;PMS_P1;PMS_P2;Temp;Humidity;BMP_temperature;BMP_pressure;BME280_temperature;BME280_humidity;BME280_pressure;Samples;Min_cycle;Max_cycle;Signal;HPM_P1;HPM_P2
2021/11/13 00:01:18;;;;;;;101.93;31.02;;;;;;;4.22;100.00;96732.78;4969426;28;20039;-63
2021/11/13 00:03:44;;;;;;;85.30;33.45;;;;;;;4.36;100.00;96732.59;4979141;28;20046;-65
2021/11/13 00:06:10;;;;;;;92.30;30.83;;;;;;;4.34;100.00;96713.94;4968432;28;20043;-64
2021/11/13 00:08:35;;;;;;;83.82;29.83;;;;;;;4.28;100.00;96712.50;4983489;28;20141;-65
2021/11/13 00:11:01;;;;;;;84.78;29.08;;;;;;;4.31;100.00;96708.34;4985339;28;20547;-65
2021/11/13 00:13:26;;;;;;;81.28;30.23;;;;;;;4.32;100.00;96709.94;4979110;28;20042;-65
2021/11/13 00:15:54;;;;;;;88.65;30.55;;;;;;;4.23;100.00;96712.66;4982137;28;20524;-64
2021/11/13 00:18:19;;;;;;;81.20;28.88;;;;;;;4.15;100.00;96719.72;4976542;28;20501;-64
2021/11/13 00:20:47;;;;;;;91.78;31.45;;;;;;;4.08;100.00;96718.66;4974478;28;20053;-64
2021/11/13 00:23:13;;;;;;;86.18;32.08;;;;;;;3.94;100.00;96722.34;4974996;28;20041;-63
2021/11/13 00:25:38;;;;;;;97.47;31.95;;;;;;;3.89;100.00;96725.22;4982883;28;20392;-62
2021/11/13 00:28:04;;;;;;;86.50;30.48;;;;;;;4.03;100.00;96722.31;4985642;28;20153;-65
2021/11/13 00:30:30;;;;;;;89.03;31.98;;;;;;;4.11;100.00;96723.44;4996243;28;20089;-63
2021/11/13 00:32:55;;;;;;;80.43;29.88;;;;;;;4.09;100.00;96728.34;4985680;28;20058;-63
2021/11/13 00:35:21;;;;;;;77.18;29.35;;;;;;;4.11;100.00;96726.94;4974908;28;20037;-63
2021/11/13 00:37:46;;;;;;;77.88;29.88;;;;;;;4.17;100.00;96730.25;4982487;28;20031;-63
2021/11/13 00:40:14;;;;;;;80.20;30.35;;;;;;;4.10;100.00;96725.31;4974117;28;20050;-62
2021/11/13 00:42:40;;;;;;;83.15;29.55;;;;;;;4.13;100.00;96729.31;4980331;28;20403;-61
2021/11/13 00:45:06;;;;;;;74.47;29.00;;;;;;;4.24;100.00;96716.19;4968126;28;20046;-64
2021/11/13 00:47:32;;;;;;;77.65;29.08;;;;;;;4.33;100.00;96722.38;4982090;28;20118;-62
2021/11/13 00:49:58;;;;;;;66.30;26.92;;;;;;;4.38;100.00;96714.84;4982118;28;20050;-62
2021/11/13 00:52:24;;;;;;;72.22;28.65;;;;;;;4.37;100.00;96707.84;4975896;28;20112;-64
2021/11/13 00:54:49;;;;;;;57.92;25.52;;;;;;;4.38;100.00;96706.72;4982091;28;20193;-63
2021/11/13 00:57:15;;;;;;;70.88;27.55;;;;;;;4.32;100.00;96705.31;4974461;28;20638;-63
2021/11/13 00:59:40;;;;;;;75.00;25.17;;;;;;;4.24;100.00;96718.91;4980201;28;20096;-62
2021/11/13 01:02:07;;;;;;;63.97;25.80;;;;;;;4.15;100.00;96708.88;4975465;28;20481;-65
2021/11/13 01:04:33;;;;;;;75.18;28.35;;;;;;;4.11;100.00;96707.16;4980806;28;20057;-64
2021/11/13 01:06:58;;;;;;;71.80;27.83;;;;;;;4.17;100.00;96706.63;4981336;28;20405;-62
2021/11/13 01:09:24;;;;;;;68.43;26.42;;;;;;;4.29;100.00;96700.53;4974769;28;20057;-61
2021/11/13 01:11:49;;;;;;;71.03;26.80;;;;;;;4.49;100.00;96700.94;4979693;28;20042;-62
2021/11/13 01:14:15;;;;;;;71.75;28.00;;;;;;;4.35;100.00;96698.44;4976094;28;20050;-63
2021/11/13 01:16:41;;;;;;;67.32;25.45;;;;;;;4.27;100.00;96693.84;4980940;28;20049;-59
2021/11/13 01:19:07;;;;;;;62.67;26.65;;;;;;;4.19;100.00;96703.59;4974716;28;20096;-62
2021/11/13 01:21:32;;;;;;;64.20;26.48;;;;;;;4.11;100.00;96707.94;4981238;28;20137;-61
2021/11/13 01:23:58;;;;;;;71.88;27.65;;;;;;;4.08;100.00;96714.00;4981914;28;20153;-62
2021/11/13 01:26:23;;;;;;;70.93;26.75;;;;;;;4.15;100.00;96710.81;4972964;28;20649;-61
2021/11/13 01:28:50;;;;;;;65.88;26.20;;;;;;;4.24;100.00;96705.34;4997317;28;20069;-65
2021/11/13 01:31:16;;;;;;;90.20;27.88;;;;;;;4.15;100.00;96703.47;4985381;28;20042;-63
2021/11/13 01:33:43;;;;;;;81.38;27.33;;;;;;;4.17;100.00;96706.63;4979888;28;20038;-63
2021/11/13 01:36:09;;;;;;;79.22;28.48;;;;;;;4.10;100.00;96709.06;4975915;28;20042;-65
2021/11/13 01:38:36;;;;;;;92.75;27.17;;;;;;;4.26;100.00;96700.41;4980236;28;20511;-64
2021/11/13 01:41:03;;;;;;;65.63;27.02;;;;;;;4.32;100.00;96693.66;4980430;28;20040;-63
2021/11/13 01:43:36;;;;;;;68.88;25.73;;;;;;;4.28;100.00;96696.22;4978814;28;20041;-63
2021/11/13 01:46:04;;;;;;;66.55;25.95;;;;;;;4.34;100.00;96694.13;4981613;28;20125;-65
2021/11/13 01:48:29;;;;;;;71.32;25.80;;;;;;;4.34;100.00;96702.25;4981632;28;20504;-64
2021/11/13 01:50:56;;;;;;;74.82;27.40;;;;;;;4.26;100.00;96701.19;4963058;28;20097;-62
2021/11/13 01:53:23;;;;;;;72.85;25.63;;;;;;;4.14;100.00;96693.75;4975447;28;20077;-62
2021/11/13 01:55:49;;;;;;;101.72;28.95;;;;;;;4.08;100.00;96695.03;4979891;28;20039;-60
2021/11/13 01:58:15;;;;;;;74.68;26.23;;;;;;;4.28;100.00;96687.31;4972742;28;20049;-63
2021/11/13 02:00:48;;;;;;;70.93;26.08;;;;;;;4.40;100.00;96684.72;4980763;28;20039;-61
2021/11/13 02:03:13;;;;;;;64.85;25.13;;;;;;;4.32;100.00;96677.41;4969821;28;20053;-63
2021/11/13 02:05:39;;;;;;;61.05;25.00;;;;;;;4.33;100.00;96674.34;4978668;28;20104;-62
2021/11/13 02:08:05;;;;;;;60.22;24.58;;;;;;;4.44;100.00;96671.28;4975098;28;20046;-64
2021/11/13 02:10:31;;;;;;;56.47;24.67;;;;;;;4.36;100.00;96673.72;4984972;28;20448;-63
2021/11/13 02:12:58;;;;;;;52.78;23.98;;;;;;;4.33;100.00;96665.44;4984676;28;20046;-63
2021/11/13 02:15:25;;;;;;;52.03;22.15;;;;;;;4.30;100.00;96663.38;4980650;28;20198;-61
2021/11/13 02:17:53;;;;;;;61.25;24.63;;;;;;;4.13;100.00;96651.50;4984221;28;20039;-60
2021/11/13 02:20:23;;;;;;;61.38;25.27;;;;;;;4.06;100.00;96659.34;4980068;28;20045;-61
2021/11/13 02:22:49;;;;;;;63.03;25.73;;;;;;;4.12;100.00;96657.22;4987561;28;20053;-61
2021/11/13 02:25:19;;;;;;;63.30;26.83;;;;;;;4.12;100.00;96655.31;4982323;28;20144;-59
2021/11/13 02:27:45;;;;;;;66.90;25.58;;;;;;;3.95;100.00;96656.19;4985654;28;20061;-61
2021/11/13 02:30:12;;;;;;;58.13;24.42;;;;;;;3.80;100.00;96660.22;4979460;28;20038;-61
2021/11/13 02:32:37;;;;;;;62.58;25.48;;;;;;;3.74;100.00;96661.50;4983819;28;20042;-60
2021/11/13 02:35:06;;;;;;;66.22;26.52;;;;;;;3.86;100.00;96660.06;4982079;28;20035;-62
2021/11/13 02:37:31;;;;;;;72.55;26.95;;;;;;;4.05;100.00;96656.94;4980894;28;20054;-62
2021/11/13 02:39:56;;;;;;;65.28;26.55;;;;;;;4.08;100.00;96659.00;4983451;28;20046;-61
2021/11/13 02:42:23;;;;;;;59.60;26.27;;;;;;;3.98;100.00;96660.97;4977649;28;20503;-61
2021/11/13 02:44:50;;;;;;;62.88;25.95;;;;;;;3.95;100.00;96664.31;4983105;28;20050;-61
2021/11/13 02:47:17;;;;;;;57.88;24.52;;;;;;;4.09;100.00;96664.13;4978597;28;20082;-61
2021/11/13 02:49:45;;;;;;;60.45;25.38;;;;;;;4.09;100.00;96666.00;4984373;28;20135;-62
2021/11/13 02:52:14;;;;;;;62.55;25.23;;;;;;;4.02;100.00;96664.59;4977728;28;20046;-60
2021/11/13 02:54:47;;;;;;;65.15;26.60;;;;;;;3.96;100.00;96655.09;4984352;28;20044;-60
2021/11/13 02:57:13;;;;;;;64.85;25.90;;;;;;;4.01;100.00;96652.16;4982378;28;20049;-62
2021/11/13 02:59:56;;;;;;;67.63;26.30;;;;;;;4.10;100.00;96638.59;5002598;28;20038;-60
2021/11/13 03:02:22;;;;;;;67.22;25.20;;;;;;;4.22;100.00;96632.47;4984249;28;20044;-61
2021/11/13 03:04:47;;;;;;;65.35;25.50;;;;;;;4.40;100.00;96635.91;4985767;28;20043;-60
2021/11/13 03:07:12;;;;;;;61.08;24.13;;;;;;;4.29;100.00;96627.34;4981432;28;20129;-61
2021/11/13 03:09:38;;;;;;;59.78;23.92;;;;;;;4.29;100.00;96630.06;4982334;28;20034;-60
2021/11/13 03:12:04;;;;;;;61.47;23.77;;;;;;;4.32;100.00;96628.59;4990499;28;20535;-62
2021/11/13 03:14:30;;;;;;;64.32;25.17;;;;;;;4.30;100.00;96634.34;4996057;28;20041;-62
2021/11/13 03:17:03;;;;;;;58.33;24.83;;;;;;;4.24;100.00;96638.38;4978886;28;20108;-61
2021/11/13 03:19:28;;;;;;;60.60;23.95;;;;;;;4.27;100.00;96634.19;4980258;28;20038;-61
2021/11/13 03:21:54;;;;;;;54.65;24.88;;;;;;;4.20;100.00;96629.31;4983474;28;20057;-61
2021/11/13 03:24:21;;;;;;;58.17;23.45;;;;;;;4.06;100.00;96637.66;4981102;28;20053;-61
2021/11/13 03:26:48;;;;;;;62.13;25.55;;;;;;;4.06;100.00;96637.66;5004424;28;20073;-62
2021/11/13 03:29:24;;;;;;;55.22;22.73;;;;;;;4.09;100.00;96639.72;4984821;28;20061;-61
2021/11/13 03:31:51;;;;;;;61.65;26.45;;;;;;;4.09;100.00;96639.72;4983849;28;20133;-61
2021/11/13 03:34:16;;;;;;;56.95;24.70;;;;;;;4.06;100.00;96637.66;4978941;28;20077;-61
2021/11/13 03:36:41;;;;;;;61.17;24.08;;;;;;;4.13;100.00;96642.56;4983284;28;20073;-62
2021/11/13 03:39:07;;;;;;;61.65;25.50;;;;;;;4.15;100.00;96646.53;4974996;28;20046;-62
2021/11/13 03:41:33;;;;;;;55.55;23.80;;;;;;;4.28;100.00;96641.22;4982894;28;20081;-59
2021/11/13 03:43:59;;;;;;;57.15;23.00;;;;;;;4.35;100.00;96636.06;4981016;28;20105;-60
2021/11/13 03:46:25;;;;;;;52.15;23.10;;;;;;;4.38;100.00;96644.34;4977795;28;20046;-61
2021/11/13 03:48:51;;;;;;;52.38;23.15;;;;;;;4.32;100.00;96642.16;4982744;28;20561;-61
2021/11/13 03:51:18;;;;;;;57.22;24.48;;;;;;;4.28;100.00;96644.72;4976998;28;20046;-60
2021/11/13 03:53:44;;;;;;;51.38;22.55;;;;;;;4.27;100.00;96648.56;4982352;28;20063;-62
2021/11/13 03:56:09;;;;;;;46.40;20.17;;;;;;;4.37;100.00;96644.69;4975809;28;20405;-61
2021/11/13 03:58:35;;;;;;;45.15;21.23;;;;;;;4.46;100.00;96656.25;4983533;28;20074;-62
2021/11/13 04:01:00;;;;;;;45.88;21.80;;;;;;;4.40;100.00;96652.94;4981918;28;20046;-62
2021/11/13 04:03:26;;;;;;;46.38;20.15;;;;;;;4.42;100.00;96657.25;4976592;28;20057;-62
2021/11/13 04:05:51;;;;;;;46.67;19.65;;;;;;;4.48;100.00;96654.00;4982235;28;20485;-61
2021/11/13 04:08:17;;;;;;;40.58;19.85;;;;;;;4.45;100.00;96643.03;4975959;28;20133;-62
2021/11/13 04:10:43;;;;;;;43.00;19.95;;;;;;;4.38;100.00;96646.28;4982540;28;20038;-61
2021/11/13 04:13:09;;;;;;;42.58;19.30;;;;;;;4.37;100.00;96645.47;4976864;28;20049;-62
2021/11/13 04:15:35;;;;;;;45.47;20.42;;;;;;;4.36;100.00;96654.72;4982605;28;20548;-62
2021/11/13 04:18:01;;;;;;;43.78;20.38;;;;;;;4.39;100.00;96653.28;4980677;28;20045;-59
2021/11/13 04:20:27;;;;;;;44.88;20.45;;;;;;;4.37;100.00;96660.94;4986658;28;20074;-63
2021/11/13 04:22:52;;;;;;;46.63;21.17;;;;;;;4.32;100.00;96659.22;5000158;28;20057;-60
2021/11/13 04:25:19;;;;;;;52.72;21.77;;;;;;;4.24;100.00;96660.06;4977033;28;20042;-61
2021/11/13 04:27:46;;;;;;;41.42;20.42;;;;;;;4.30;100.00;96666.88;4979789;28;20038;-61
2021/11/13 04:30:13;;;;;;;41.80;21.33;;;;;;;4.33;100.00;96665.44;4992391;28;20059;-62
2021/11/13 04:32:44;;;;;;;41.00;19.77;;;;;;;4.27;100.00;96662.13;4981367;28;20046;-58
2021/11/13 04:37:41;;;;;;;42.25;19.20;;;;;;;4.19;100.00;96682.72;4983035;28;20049;-62
2021/11/13 04:40:08;;;;;;;43.30;20.40;;;;;;;4.28;100.00;96685.38;4973815;28;20042;-61
2021/11/13 04:42:33;;;;;;;34.30;18.48;;;;;;;4.37;100.00;96678.00;4976853;28;20082;-62
2021/11/13 04:44:58;;;;;;;38.40;19.08;;;;;;;4.32;100.00;96691.78;4979855;28;20186;-61
2021/11/13 04:47:24;;;;;;;41.85;18.92;;;;;;;4.36;100.00;96684.56;4975608;28;20141;-61
2021/11/13 04:49:49;;;;;;;40.92;20.13;;;;;;;4.44;100.00;96684.84;4981377;28;20050;-61
2021/11/13 04:52:15;;;;;;;39.00;18.17;;;;;;;4.36;100.00;96692.69;4975820;28;20046;-62
2021/11/13 04:54:40;;;;;;;41.85;19.63;;;;;;;4.28;100.00;96695.44;4980896;28;20046;-62
2021/11/13 04:57:06;;;;;;;39.78;19.15;;;;;;;4.27;100.00;96697.38;4975400;28;20042;-62
2021/11/13 04:59:32;;;;;;;36.67;17.77;;;;;;;4.38;100.00;96698.59;4978834;28;20039;-62
2021/11/13 05:01:59;;;;;;;38.30;17.73;;;;;;;4.37;100.00;96704.34;4980470;28;20189;-62
2021/11/13 05:04:24;;;;;;;35.03;17.58;;;;;;;4.31;100.00;96706.44;4976703;28;20038;-64
2021/11/13 05:06:50;;;;;;;36.78;17.85;;;;;;;4.22;100.00;96706.47;4982358;28;20198;-63
2021/11/13 05:09:15;;;;;;;39.40;18.38;;;;;;;4.36;100.00;96705.47;4973538;28;20147;-63
2021/11/13 05:11:41;;;;;;;37.78;17.70;;;;;;;4.30;100.00;96710.25;4981361;28;20096;-62
2021/11/13 05:14:07;;;;;;;33.05;16.98;;;;;;;4.38;100.00;96709.44;4966543;28;20050;-61
2021/11/13 05:16:33;;;;;;;40.88;19.95;;;;;;;4.30;100.00;96712.19;4981201;28;20524;-63
2021/11/13 05:18:58;;;;;;;45.75;19.83;;;;;;;4.13;100.00;96710.34;4980931;28;20050;-63
2021/11/13 05:21:23;;;;;;;37.38;18.55;;;;;;;4.09;100.00;96703.94;4976697;28;20088;-62
2021/11/13 05:23:49;;;;;;;44.13;19.83;;;;;;;4.07;100.00;96714.31;4977505;28;20042;-63
2021/11/13 05:26:14;;;;;;;48.55;20.95;;;;;;;4.12;100.00;96711.44;4973739;28;20046;-60
2021/11/13 05:28:43;;;;;;;49.00;22.42;;;;;;;4.13;100.00;96707.63;4978949;28;20106;-61
2021/11/13 05:31:10;;;;;;;47.35;22.50;;;;;;;4.14;100.00;96718.16;4969308;28;20046;-61
2021/11/13 05:33:36;;;;;;;45.00;21.25;;;;;;;4.08;100.00;96702.38;4981550;28;20489;-61
2021/11/13 05:36:01;;;;;;;48.40;20.83;;;;;;;4.22;100.00;96702.97;4981404;28;20114;-62
2021/11/13 05:38:27;;;;;;;45.88;20.65;;;;;;;4.22;100.00;96702.97;4972968;28;20046;-62
2021/11/13 05:40:52;;;;;;;46.25;20.23;;;;;;;4.28;100.00;96711.72;4980274;28;20145;-60
2021/11/13 05:43:18;;;;;;;49.70;21.10;;;;;;;4.39;100.00;96699.38;4973850;28;20054;-61
2021/11/13 05:45:44;;;;;;;53.10;20.42;;;;;;;4.33;100.00;96700.69;4981025;28;20403;-61
2021/11/13 05:48:10;;;;;;;51.63;21.00;;;;;;;4.24;100.00;96700.72;4975309;28;20050;-62
2021/11/13 05:50:35;;;;;;;48.47;20.02;;;;;;;4.31;100.00;96701.00;4980433;28;20676;-60
2021/11/13 05:53:02;;;;;;;52.25;21.70;;;;;;;4.20;100.00;96707.91;4977424;28;20496;-60
2021/11/13 05:55:28;;;;;;;47.65;21.00;;;;;;;4.09;100.00;96709.38;4981156;28;20054;-61
2021/11/13 05:57:54;;;;;;;48.55;22.33;;;;;;;4.08;100.00;96714.00;4991742;28;20057;-61
2021/11/13 06:00:21;;;;;;;45.35;19.30;;;;;;;4.16;100.00;96706.97;4975350;28;20038;-61
2021/11/13 06:02:48;;;;;;;46.47;20.58;;;;;;;4.14;100.00;96701.88;4982801;28;20043;-62
2021/11/13 06:05:15;;;;;;;44.78;22.08;;;;;;;4.17;100.00;96701.22;4976582;28;20129;-58
2021/11/13 06:07:41;;;;;;;45.08;20.75;;;;;;;4.20;100.00;96706.00;4979261;28;20042;-59
2021/11/13 06:10:08;;;;;;;48.83;22.63;;;;;;;4.25;100.00;96710.47;4973240;28;20103;-61
2021/11/13 06:12:34;;;;;;;53.88;23.38;;;;;;;4.29;100.00;96711.38;4980268;28;20150;-62
2021/11/13 06:15:00;;;;;;;56.55;22.98;;;;;;;4.41;100.00;96710.69;4980609;28;20041;-61
2021/11/13 06:17:27;;;;;;;55.40;24.15;;;;;;;4.39;100.00;96726.50;4975802;28;20442;-61
2021/11/13 06:19:53;;;;;;;53.60;23.20;;;;;;;4.25;100.00;96724.00;4979599;28;20050;-62
2021/11/13 06:22:18;;;;;;;51.05;23.70;;;;;;;4.40;100.00;96719.97;4974328;28;20050;-61
2021/11/13 06:24:44;;;;;;;41.33;19.95;;;;;;;4.14;100.00;96731.72;4980865;28;20476;-62
2021/11/13 06:27:10;;;;;;;41.85;20.55;;;;;;;4.20;100.00;96730.41;4974415;28;20050;-62
2021/11/13 06:29:35;;;;;;;34.63;17.42;;;;;;;4.38;100.00;96728.41;4979377;28;20406;-61
2021/11/13 06:32:01;;;;;;;38.35;16.58;;;;;;;4.39;100.00;96734.63;4984673;28;20038;-61
2021/11/13 06:34:26;;;;;;;30.52;16.27;;;;;;;4.26;100.00;96741.06;4993562;28;20060;-62
2021/11/13 06:36:51;;;;;;;29.33;15.02;;;;;;;4.13;100.00;96740.16;4983223;28;20133;-61
2021/11/13 06:39:18;;;;;;;32.80;16.33;;;;;;;4.17;100.00;96732.97;4975603;28;20414;-60
2021/11/13 06:41:43;;;;;;;33.85;17.33;;;;;;;4.17;100.00;96733.75;4985901;28;20042;-61
2021/11/13 06:44:09;;;;;;;34.15;16.60;;;;;;;4.15;100.00;96736.00;4980178;28;20052;-62
2021/11/13 06:46:34;;;;;;;36.20;16.67;;;;;;;4.31;100.00;96738.19;4981076;28;20086;-61
2021/11/13 06:48:59;;;;;;;33.60;15.50;;;;;;;4.26;100.00;96735.66;4980417;28;20053;-62
2021/11/13 06:51:25;;;;;;;36.13;16.23;;;;;;;4.29;100.00;96738.50;4972298;28;20042;-61
2021/11/13 06:53:51;;;;;;;31.55;15.48;;;;;;;4.27;100.00;96745.34;4980671;28;20057;-62
2021/11/13 06:56:17;;;;;;;30.05;15.32;;;;;;;4.20;100.00;96756.72;4981134;28;20034;-63
2021/11/13 06:58:42;;;;;;;31.55;15.77;;;;;;;4.09;100.00;96752.75;4989698;28;20038;-62
2021/11/13 07:01:07;;;;;;;28.73;14.25;;;;;;;4.13;100.00;96770.75;4992676;28;20043;-61
2021/11/13 07:03:33;;;;;;;33.00;15.15;;;;;;;4.10;100.00;96767.91;4989079;28;20052;-63
2021/11/13 07:05:59;;;;;;;28.63;15.02;;;;;;;4.09;100.00;96772.53;4982668;28;20666;-62
2021/11/13 07:08:24;;;;;;;32.88;15.35;;;;;;;4.09;100.00;96769.81;4978840;28;20625;-61
2021/11/13 07:10:52;;;;;;;30.80;16.58;;;;;;;4.15;100.00;96778.56;4981672;28;20495;-62
2021/11/13 07:13:20;;;;;;;38.17;19.35;;;;;;;4.11;100.00;96774.94;4978252;28;20047;-61
2021/11/13 07:15:46;;;;;;;30.45;15.77;;;;;;;4.20;100.00;96771.06;4981711;28;20046;-62
2021/11/13 07:18:12;;;;;;;36.80;16.50;;;;;;;4.15;100.00;96776.66;4976999;28;20034;-62
2021/11/13 07:20:37;;;;;;;31.10;16.65;;;;;;;4.31;100.00;96774.22;4986486;28;20554;-62
2021/11/13 07:23:04;;;;;;;36.72;17.80;;;;;;;4.45;100.00;96778.63;4983902;28;20046;-63
2021/11/13 07:25:32;;;;;;;32.47;16.77;;;;;;;4.42;100.00;96776.59;4983373;28;20058;-63
2021/11/13 07:28:12;;;;;;;43.40;19.20;;;;;;;4.28;100.00;96774.84;4983300;28;20439;-62
2021/11/13 07:30:39;;;;;;;38.17;19.10;;;;;;;4.47;100.00;96771.78;4982791;28;20043;-61
2021/11/13 07:33:07;;;;;;;35.60;17.23;;;;;;;4.40;100.00;96771.50;4978005;28;20125;-64
2021/11/13 07:35:37;;;;;;;34.83;17.20;;;;;;;4.45;100.00;96773.22;4985392;28;20051;-61
2021/11/13 07:38:03;;;;;;;36.05;17.75;;;;;;;4.51;100.00;96780.06;4983967;28;20050;-62
2021/11/13 07:40:29;;;;;;;32.25;18.67;;;;;;;4.43;100.00;96781.69;4982041;28;20062;-63
2021/11/13 07:42:55;;;;;;;33.90;16.85;;;;;;;4.54;100.00;96777.50;4966028;28;20416;-64
2021/11/13 07:45:20;;;;;;;28.35;15.57;;;;;;;4.86;100.00;96779.91;4956131;28;20115;-64
2021/11/13 07:47:46;;;;;;;37.28;18.05;;;;;;;4.92;100.00;96782.09;4963810;28;20060;-63
2021/11/13 07:50:14;;;;;;;30.48;15.57;;;;;;;4.75;100.00;96780.28;4957239;28;20078;-64
2021/11/13 07:52:42;;;;;;;29.92;15.80;;;;;;;4.80;100.00;96779.28;4962145;28;20053;-63
2021/11/13 07:55:08;;;;;;;29.50;15.10;;;;;;;4.97;100.00;96784.63;4960546;28;20042;-63
2021/11/13 07:57:35;;;;;;;26.40;14.82;;;;;;;5.08;100.00;96786.97;4981105;28;20311;-63
2021/11/13 08:00:01;;;;;;;26.67;14.35;;;;;;;5.21;100.00;96779.72;4982870;28;20076;-64
2021/11/13 08:02:27;;;;;;;25.27;13.82;;;;;;;5.45;100.00;96773.63;4975172;28;20805;-64
2021/11/13 08:04:54;;;;;;;27.30;13.38;;;;;;;5.53;100.00;96778.22;4983068;28;20381;-63
2021/11/13 08:07:20;;;;;;;24.42;13.73;;;;;;;5.72;100.00;96769.56;4983370;28;20042;-62
2021/11/13 08:09:45;;;;;;;29.50;15.40;;;;;;;5.89;100.00;96777.56;4996012;28;20038;-64
2021/11/13 08:12:11;;;;;;;30.42;15.93;;;;;;;5.92;100.00;96779.63;4975596;28;20130;-61
2021/11/13 08:14:36;;;;;;;25.15;14.13;;;;;;;5.84;100.00;96780.50;4982721;28;20034;-62
2021/11/13 08:17:02;;;;;;;26.50;14.15;;;;;;;5.86;100.00;96780.16;4980267;28;20045;-61
2021/11/13 08:19:28;;;;;;;28.15;14.20;;;;;;;5.85;100.00;96784.81;4980819;28;20538;-63
2021/11/13 08:21:54;;;;;;;27.67;13.23;;;;;;;6.06;100.00;96786.72;4982857;28;20390;-63
2021/11/13 08:24:20;;;;;;;26.50;13.25;;;;;;;6.18;100.00;96772.38;4974218;28;20042;-62
2021/11/13 08:26:47;;;;;;;28.25;14.98;;;;;;;6.18;100.00;96770.44;4977623;28;20049;-65
2021/11/13 08:29:13;;;;;;;25.48;13.43;;;;;;;6.26;100.00;96764.09;4980572;28;20050;-63
2021/11/13 08:31:38;;;;;;;24.27;13.05;;;;;;;6.21;100.00;96771.69;4987080;28;20089;-65
2021/11/13 08:34:04;;;;;;;26.67;14.15;;;;;;;6.03;100.00;96771.88;4976769;28;20049;-61
2021/11/13 08:36:29;;;;;;;32.50;17.38;;;;;;;5.65;100.00;96772.03;4982567;28;20120;-64
2021/11/13 08:38:55;;;;;;;27.98;14.20;;;;;;;5.56;100.00;96763.94;4986267;28;20113;-62
2021/11/13 08:41:21;;;;;;;27.30;14.35;;;;;;;5.73;100.00;96766.53;4975723;28;20050;-62
2021/11/13 08:43:48;;;;;;;28.70;13.82;;;;;;;5.71;100.00;96754.41;4981095;28;20042;-64
2021/11/13 08:46:13;;;;;;;25.77;14.10;;;;;;;5.02;100.00;96744.84;4975428;28;20514;-64
2021/11/13 08:48:38;;;;;;;29.70;15.60;;;;;;;4.88;100.00;96748.59;4982136;28;20050;-64
2021/11/13 08:51:04;;;;;;;33.88;18.05;;;;;;;5.01;100.00;96749.50;4979143;28;20038;-61
2021/11/13 08:53:30;;;;;;;28.52;14.70;;;;;;;5.24;100.00;96746.44;4982751;28;20046;-64
2021/11/13 08:55:55;;;;;;;29.42;16.40;;;;;;;5.23;100.00;96753.81;4982048;28;20496;-63
2021/11/13 08:58:21;;;;;;;30.67;15.27;;;;;;;5.50;100.00;96763.34;4977006;28;20046;-62
2021/11/13 09:00:54;;;;;;;29.58;15.35;;;;;;;5.66;100.00;96762.75;4982199;28;20069;-61
2021/11/13 09:03:24;;;;;;;27.42;14.52;;;;;;;5.49;100.00;96755.53;4975030;28;20058;-63
2021/11/13 09:05:50;;;;;;;27.10;14.38;;;;;;;5.70;100.00;96745.44;4981245;28;20042;-65
2021/11/13 09:08:16;;;;;;;25.40;13.43;;;;;;;5.78;100.00;96756.56;4975935;28;20053;-64
2021/11/13 09:10:43;;;;;;;22.95;14.02;;;;;;;5.60;100.00;96740.44;4981881;28;20512;-64
2021/11/13 09:13:10;;;;;;;25.67;12.88;;;;;;;5.52;100.00;96744.00;4974231;28;20053;-63
2021/11/13 09:15:36;;;;;;;22.90;14.15;;;;;;;5.46;100.00;96746.13;4981049;28;20064;-64
2021/11/13 09:18:03;;;;;;;24.42;12.30;;;;;;;5.59;100.00;96746.19;4976105;28;20045;-62
2021/11/13 09:20:29;;;;;;;21.55;12.82;;;;;;;5.57;100.00;96740.31;4973296;28;20042;-65
2021/11/13 09:22:55;;;;;;;22.35;11.63;;;;;;;5.63;100.00;96744.41;4980607;28;20062;-64
2021/11/13 09:25:21;;;;;;;22.88;12.73;;;;;;;5.50;100.00;96748.97;4970928;28;20049;-64
2021/11/13 09:27:46;;;;;;;19.67;11.68;;;;;;;5.67;100.00;96759.72;4981656;28;20097;-64
2021/11/13 09:30:16;;;;;;;18.25;10.90;;;;;;;5.71;100.00;96752.47;4975996;28;20440;-63
2021/11/13 09:32:44;;;;;;;22.00;12.35;;;;;;;5.86;100.00;96752.97;4980175;28;20044;-64
2021/11/13 09:35:11;;;;;;;19.95;10.50;;;;;;;5.82;100.00;96749.34;4974047;28;20030;-63
2021/11/13 09:37:38;;;;;;;20.05;11.27;;;;;;;5.82;100.00;96755.56;4980289;28;20046;-63
2021/11/13 09:40:06;;;;;;;16.50;9.90;;;;;;;5.73;100.00;96752.94;4976858;28;20456;-62
2021/11/13 09:42:31;;;;;;;22.20;10.75;;;;;;;5.73;100.00;96757.59;4979782;28;20507;-64
2021/11/13 09:44:57;;;;;;;14.32;9.38;;;;;;;5.63;100.00;96757.97;4980454;28;20046;-65
2021/11/13 09:47:23;;;;;;;18.45;10.50;;;;;;;5.55;100.00;96756.94;4973722;28;20831;-65
2021/11/13 09:49:49;;;;;;;18.17;10.38;;;;;;;5.63;100.00;96763.41;4981499;28;20089;-63
2021/11/13 09:52:15;;;;;;;17.02;10.23;;;;;;;5.66;100.00;96758.09;4968877;28;20398;-62
2021/11/13 09:54:43;;;;;;;19.83;11.80;;;;;;;5.71;100.00;96765.28;4978174;28;20042;-65
2021/11/13 09:57:09;;;;;;;19.70;11.27;;;;;;;5.65;100.00;96766.59;4982380;28;20038;-65
2021/11/13 09:59:35;;;;;;;21.65;10.70;;;;;;;5.71;100.00;96766.06;4997047;28;20042;-64
2021/11/13 10:02:00;;;;;;;17.42;11.10;;;;;;;5.72;100.00;96759.47;4984283;28;20046;-64
2021/11/13 10:04:26;;;;;;;19.10;10.25;;;;;;;5.74;100.00;96753.72;4979578;28;20492;-64
2021/11/13 10:06:52;;;;;;;18.77;10.52;;;;;;;5.85;100.00;96757.63;4980140;28;20070;-64
2021/11/13 10:09:17;;;;;;;19.25;11.27;;;;;;;5.92;100.00;96746.19;4969224;28;20042;-64
2021/11/13 10:11:49;;;;;;;17.15;10.23;;;;;;;6.00;100.00;96752.72;4978712;28;20100;-62
2021/11/13 10:14:17;;;;;;;17.80;10.73;;;;;;;5.99;100.00;96740.25;4975818;28;20062;-64
2021/11/13 10:16:46;;;;;;;19.65;11.18;;;;;;;6.09;100.00;96745.28;4981644;28;20137;-64
2021/11/13 10:19:19;;;;;;;15.63;10.82;;;;;;;6.16;100.00;96740.06;4975086;28;20043;-64
2021/11/13 10:21:52;;;;;;;17.77;9.25;;;;;;;6.34;100.00;96735.25;4981295;28;20046;-64
2021/11/13 10:24:22;;;;;;;16.48;10.35;;;;;;;6.35;100.00;96736.81;4983613;28;20090;-66
2021/11/13 10:26:51;;;;;;;17.98;10.57;;;;;;;6.29;100.00;96730.81;4993052;28;20046;-64
2021/11/13 10:29:36;;;;;;;16.35;10.15;;;;;;;6.36;100.00;96722.09;4974034;28;20058;-64
2021/11/13 10:32:08;;;;;;;15.13;10.40;;;;;;;6.39;100.00;96723.31;4980954;28;20069;-62
2021/11/13 10:34:41;;;;;;;19.80;11.48;;;;;;;6.48;100.00;96715.84;4985044;28;20042;-64
2021/11/13 10:37:10;;;;;;;16.17;9.40;;;;;;;6.45;100.00;96717.34;4979828;28;20049;-63
2021/11/13 10:39:41;;;;;;;17.08;9.90;;;;;;;6.39;100.00;96715.16;4984418;28;20065;-64
2021/11/13 10:42:07;;;;;;;16.55;10.68;;;;;;;6.34;100.00;96718.09;4976802;28;20050;-64
2021/11/13 10:44:37;;;;;;;16.88;9.98;;;;;;;6.42;100.00;96711.78;4983047;28;20044;-63
2021/11/13 10:47:12;;;;;;;19.30;11.15;;;;;;;6.12;100.00;96710.03;4982221;28;20050;-62
2021/11/13 10:49:37;;;;;;;16.98;10.50;;;;;;;6.03;100.00;96706.63;4983367;28;20555;-65
2021/11/13 10:52:05;;;;;;;19.92;10.63;;;;;;;6.02;100.00;96704.25;4977832;28;20039;-62
2021/11/13 10:54:31;;;;;;;18.52;10.90;;;;;;;6.02;100.00;96709.69;4980125;28;20054;-69
2021/11/13 10:56:59;;;;;;;18.48;11.00;;;;;;;6.24;100.00;96684.78;4981297;28;20065;-66
2021/11/13 10:59:37;;;;;;;22.25;12.57;;;;;;;6.36;100.00;96691.38;4979562;28;20137;-62
2021/11/13 11:02:06;;;;;;;16.20;10.63;;;;;;;6.38;100.00;96692.63;4979482;28;20061;-62
2021/11/13 11:04:35;;;;;;;17.15;11.20;;;;;;;6.12;100.00;96692.91;4981474;28;20043;-64
2021/11/13 11:07:05;;;;;;;17.83;11.03;;;;;;;6.14;100.00;96693.41;4984145;28;20137;-65
2021/11/13 11:09:32;;;;;;;20.50;11.95;;;;;;;6.12;100.00;96692.91;4981333;28;20488;-65
2021/11/13 11:12:00;;;;;;;18.25;12.80;;;;;;;6.05;100.00;96688.06;4987453;28;20050;-64
2021/11/13 11:14:29;;;;;;;21.00;12.40;;;;;;;6.10;100.00;96696.00;4980184;28;20058;-63
2021/11/13 11:16:58;;;;;;;19.45;12.18;;;;;;;6.29;100.00;96687.28;4983792;28;20503;-65